Pagina principală
METAR-TAF:

METAR-TAF

Aeroporturi :

Ponca City, Oklahoma, Statele Unite ale Americii

Latitudine: 36-43-50N, longitudine: 097-05-59W, elevație: 307 m

Observații meteo curente

Raportul a fost făcut în urmă cu 1 oră și 6 de minute, la 11:53 UTC
Vânt 4 kt de la Sud
Temperatură 25°C
Umiditate 79%
Presiune 1014 hPa
Vizibilitate: 16.1 km
Cer senin

METAR: KPNC 151153Z AUTO 19004KT 10SM CLR 25/21 A2995 RMK AO2 SLP126 T02500211 10283 20250 53008

Ora: 07:59 (12:59 UTC)

Prognoză

Raportul a fost făcut în urmă cu 1 oră și 39 de minute, la 11:20 UTC
Prognoză valabilă de la 15 ora 12 UTC la 16 ora 12 UTC
Vânt 12 kt de la Sud
Vizibilitate: 10 km
Nori împrăștiați la o înălțime de 25000 picior

TAF: KPNC 151120Z 1512/1612 17012KT P6SM SCT250

Observații și prognoze meteo pentru peste 4.000 de aeroporturi (rapoarte METAR și TAF).

Stațiile disponibile sunt reprezentate pe hartă prin puncte galbene și roșii.

Țineți indicatorul mouse-ului pe punctul dorit pentru a vedea denumirea stației.

Apoi, faceți clic pentru a vedea observațiile și prognozele meteorologice.

Pentru a schimba harta: Pentru mărire, faceți clic pe butoanele verzi cu cruce neagră; pentru micșorare, pe butonul verde cu o liniuță; pentru hărți învecinate, pe săgețile verzi.


METAR-TAF: